Piuma, Brazil
Current Conditions -  °F | °C
As of 11:00 AM on Wednesday 22 Oct 2014 (Local Time) from SBVT Reporting Station
Broken Clouds Broken Clouds  
Wind Chill: 75°   Ceiling: 8000
Heat Index: 75°   Visibility: 6mi
Dew Point: 63°   Wind: 14mph
Humidity: 65%   Direction: 210°SSW
Pressure: 30.18"   Gusts: NA
Location:  20.84°S, 40.72°W
Report Text: SBVT 221300Z 21012KT 9999 FEW017 SCT025 BKN080 24/17 Q1022
Loading
Personal Weather Stations






























Interactive Weather Map
Tropical Storm Tracking
New forecast layout! Learn more

10-Day Weather Forecast

Advertisements
Track Severe Weather on mobile